createdAt,value
2023-05-19T00:00:05.724Z,14.10
2023-05-19T00:01:05.801Z,14.19
2023-05-19T00:02:05.979Z,14.29
2023-05-19T00:03:05.962Z,14.33
2023-05-19T00:04:05.912Z,14.28
2023-05-19T00:05:05.961Z,14.18
2023-05-19T00:06:06.073Z,14.07
2023-05-19T00:07:06.070Z,14.05
2023-05-19T00:08:06.140Z,14.05
2023-05-19T00:09:06.210Z,14.10
2023-05-19T00:10:06.248Z,14.11
2023-05-19T00:11:06.346Z,14.11
2023-05-19T00:12:06.363Z,14.10
2023-05-19T00:13:06.418Z,14.13
2023-05-19T00:14:06.467Z,14.06
2023-05-19T00:15:06.463Z,13.99
2023-05-19T00:16:06.529Z,14.03
2023-05-19T00:17:06.567Z,14.15
2023-05-19T00:18:06.638Z,14.12
2023-05-19T00:19:06.728Z,14.12
2023-05-19T00:20:06.717Z,14.08
2023-05-19T00:21:06.756Z,14.10
2023-05-19T00:22:06.777Z,14.05
2023-05-19T00:23:06.803Z,13.98
2023-05-19T00:24:06.846Z,14.07
2023-05-19T00:25:07.313Z,14.14
2023-05-19T00:26:06.900Z,14.16
2023-05-19T00:27:06.930Z,14.16
2023-05-19T00:28:06.949Z,14.17
2023-05-19T00:29:06.976Z,14.19
2023-05-19T00:30:07.076Z,14.05
2023-05-19T00:31:07.053Z,14.08
2023-05-19T00:32:07.180Z,13.93
2023-05-19T00:33:07.167Z,13.82
2023-05-19T00:34:07.162Z,13.71
2023-05-19T00:35:07.207Z,13.51
2023-05-19T00:36:07.244Z,13.52
2023-05-19T00:37:07.300Z,13.58
2023-05-19T00:38:07.342Z,13.69
2023-05-19T00:39:07.393Z,13.75
2023-05-19T00:40:07.420Z,13.81
2023-05-19T00:41:07.481Z,13.91
2023-05-19T00:42:07.501Z,13.95
2023-05-19T00:43:07.527Z,13.88
2023-05-19T00:44:07.614Z,13.90
2023-05-19T00:45:07.642Z,13.86
2023-05-19T00:46:07.797Z,13.87
2023-05-19T00:47:07.771Z,13.84
2023-05-19T00:48:07.806Z,13.70
2023-05-19T00:49:07.782Z,13.80
2023-05-19T00:50:07.816Z,13.89
2023-05-19T00:51:07.835Z,14.02
2023-05-19T00:52:07.873Z,14.11
2023-05-19T00:53:07.888Z,14.17
2023-05-19T00:54:07.949Z,14.21
2023-05-19T00:55:07.953Z,14.27
2023-05-19T00:56:07.984Z,14.27
2023-05-19T00:57:08.008Z,14.20
2023-05-19T00:58:08.057Z,14.16
2023-05-19T00:59:08.090Z,14.12
2023-05-19T01:00:08.137Z,14.13
2023-05-19T01:01:08.198Z,14.15
2023-05-19T01:02:08.178Z,14.14
2023-05-19T01:03:08.281Z,14.17
2023-05-19T01:04:08.324Z,14.20
2023-05-19T01:05:08.301Z,14.19
2023-05-19T01:06:08.440Z,14.17
2023-05-19T01:07:08.394Z,14.16
2023-05-19T01:08:08.411Z,14.18
2023-05-19T01:09:08.487Z,14.25
2023-05-19T01:10:08.524Z,14.22
2023-05-19T01:11:08.563Z,14.21
2023-05-19T01:12:08.652Z,14.28
2023-05-19T01:13:08.641Z,14.28
2023-05-19T01:14:08.664Z,14.24
2023-05-19T01:15:08.701Z,14.24
2023-05-19T01:16:08.905Z,14.25
2023-05-19T01:17:08.766Z,14.27
2023-05-19T01:18:08.846Z,14.29
2023-05-19T01:19:08.894Z,14.26
2023-05-19T01:20:08.900Z,14.25
2023-05-19T01:21:08.971Z,14.17
2023-05-19T01:22:09.834Z,14.19
2023-05-19T01:23:09.010Z,14.07
2023-05-19T01:24:09.076Z,13.95
2023-05-19T01:25:09.110Z,14.02
2023-05-19T01:26:09.165Z,14.02
2023-05-19T01:27:09.186Z,13.98
2023-05-19T01:28:09.215Z,14.03
2023-05-19T01:29:09.273Z,14.06
2023-05-19T01:30:09.273Z,13.97
2023-05-19T01:31:09.310Z,13.82
2023-05-19T01:32:09.378Z,13.80
2023-05-19T01:33:09.495Z,13.76
2023-05-19T01:34:09.490Z,13.69
2023-05-19T01:35:09.513Z,13.68
2023-05-19T01:36:09.547Z,13.64
2023-05-19T01:37:09.580Z,13.66
2023-05-19T01:38:09.623Z,13.70
2023-05-19T01:39:09.643Z,13.79
2023-05-19T01:40:09.687Z,13.87
2023-05-19T01:41:09.738Z,13.89
2023-05-19T01:42:09.752Z,13.87
2023-05-19T01:43:09.793Z,13.82
2023-05-19T01:44:09.805Z,13.63
2023-05-19T01:45:09.819Z,13.53
2023-05-19T01:46:09.861Z,13.61
2023-05-19T01:47:09.860Z,13.70
2023-05-19T01:48:11.189Z,13.71
2023-05-19T01:49:09.947Z,13.70
2023-05-19T01:50:09.974Z,13.76
2023-05-19T01:51:09.986Z,13.76
2023-05-19T01:52:09.997Z,13.83
2023-05-19T01:53:10.022Z,13.89
2023-05-19T01:54:10.860Z,13.90
2023-05-19T01:55:10.124Z,13.81
2023-05-19T01:56:10.182Z,13.72
2023-05-19T01:57:10.165Z,13.73
2023-05-19T01:58:10.198Z,13.83
2023-05-19T01:59:10.191Z,13.81
2023-05-19T02:00:10.219Z,13.83
2023-05-19T02:01:10.305Z,13.80
2023-05-19T02:02:10.269Z,13.70
2023-05-19T02:03:10.310Z,13.74
2023-05-19T02:04:10.379Z,13.85
2023-05-19T02:05:10.374Z,13.83
2023-05-19T02:06:10.886Z,13.73
2023-05-19T02:07:10.479Z,13.66
2023-05-19T02:08:10.540Z,13.69
2023-05-19T02:09:10.582Z,13.75
2023-05-19T02:10:10.673Z,13.71
2023-05-19T02:11:10.670Z,13.64
2023-05-19T02:12:10.721Z,13.70
2023-05-19T02:13:10.721Z,13.77
2023-05-19T02:14:10.750Z,13.68
2023-05-19T02:15:10.767Z,13.54
2023-05-19T02:16:10.838Z,13.45
2023-05-19T02:17:10.824Z,13.56
2023-05-19T02:18:10.826Z,13.66
2023-05-19T02:19:10.865Z,13.73
2023-05-19T02:20:11.015Z,13.83
2023-05-19T02:21:10.941Z,13.81
2023-05-19T02:22:10.977Z,13.65
2023-05-19T02:23:11.013Z,13.62
2023-05-19T02:24:11.043Z,13.65
2023-05-19T02:25:11.078Z,13.65
2023-05-19T02:26:11.159Z,13.72
2023-05-19T02:27:11.101Z,13.80
2023-05-19T02:28:11.138Z,13.83
2023-05-19T02:29:11.193Z,13.84
2023-05-19T02:30:11.190Z,13.76
2023-05-19T02:31:11.230Z,13.77
2023-05-19T02:32:11.431Z,13.73
2023-05-19T02:33:11.388Z,13.64
2023-05-19T02:34:11.393Z,13.70
2023-05-19T02:35:11.335Z,13.77
2023-05-19T02:36:11.386Z,13.77
2023-05-19T02:37:11.342Z,13.83
2023-05-19T02:38:11.376Z,13.80
2023-05-19T02:39:11.409Z,13.87
2023-05-19T02:40:11.454Z,13.92
2023-05-19T02:41:11.465Z,13.71
2023-05-19T02:42:11.482Z,13.47
2023-05-19T02:43:11.494Z,13.41
2023-05-19T02:44:11.516Z,13.31
2023-05-19T02:45:11.561Z,13.35
2023-05-19T02:46:11.748Z,13.40
2023-05-19T02:47:11.597Z,13.46
2023-05-19T02:48:11.660Z,13.48
2023-05-19T02:49:11.669Z,13.41
2023-05-19T02:50:11.668Z,13.42
2023-05-19T02:51:11.668Z,13.42
2023-05-19T02:52:11.735Z,13.48
2023-05-19T02:53:11.725Z,13.50
2023-05-19T02:54:12.390Z,13.52
2023-05-19T02:55:11.752Z,13.59
2023-05-19T02:56:11.749Z,13.61
2023-05-19T02:57:11.743Z,13.57
2023-05-19T02:58:11.781Z,13.56
2023-05-19T02:59:11.822Z,13.68
2023-05-19T03:00:11.816Z,13.71
2023-05-19T03:01:11.849Z,13.70
2023-05-19T03:02:11.978Z,13.73
2023-05-19T03:03:11.935Z,13.79
2023-05-19T03:04:11.893Z,13.82
2023-05-19T03:05:11.897Z,13.65
2023-05-19T03:06:11.925Z,13.65
2023-05-19T03:07:11.959Z,13.62
2023-05-19T03:08:11.969Z,13.62
2023-05-19T03:09:11.999Z,13.57
2023-05-19T03:10:12.025Z,13.57
2023-05-19T03:11:12.038Z,13.57
2023-05-19T03:12:12.044Z,13.54
2023-05-19T03:13:12.062Z,13.60
2023-05-19T03:14:12.081Z,13.67
2023-05-19T03:15:12.105Z,13.63
2023-05-19T03:16:12.141Z,13.57
2023-05-19T03:17:12.190Z,13.60
2023-05-19T03:18:12.198Z,13.55
2023-05-19T03:19:12.216Z,13.61
2023-05-19T03:20:12.224Z,13.69
2023-05-19T03:21:12.226Z,13.64
2023-05-19T03:22:12.230Z,13.64
2023-05-19T03:23:12.257Z,13.62
2023-05-19T03:24:12.295Z,13.63
2023-05-19T03:25:12.300Z,13.64
2023-05-19T03:26:12.302Z,13.61
2023-05-19T03:27:12.336Z,13.53
2023-05-19T03:28:12.350Z,13.44
2023-05-19T03:29:12.415Z,13.45
2023-05-19T03:30:12.444Z,13.41
2023-05-19T03:31:12.505Z,13.35
2023-05-19T03:32:12.517Z,13.31
2023-05-19T03:33:12.761Z,13.27
2023-05-19T03:34:12.673Z,13.29
2023-05-19T03:35:12.635Z,13.38
2023-05-19T03:36:12.704Z,13.41
2023-05-19T03:37:12.723Z,13.41
2023-05-19T03:38:12.738Z,13.28
2023-05-19T03:39:12.793Z,13.29
2023-05-19T03:40:12.860Z,13.29
2023-05-19T03:41:12.866Z,13.33
2023-05-19T03:42:12.939Z,13.34
2023-05-19T03:43:12.950Z,13.35
2023-05-19T03:44:12.941Z,13.27
2023-05-19T03:45:12.963Z,13.28
2023-05-19T03:46:13.036Z,13.25
2023-05-19T03:47:12.958Z,13.18
2023-05-19T03:48:13.051Z,13.19
2023-05-19T03:49:13.042Z,13.18
2023-05-19T03:50:13.059Z,13.24
2023-05-19T03:51:13.119Z,13.31
2023-05-19T03:52:13.148Z,13.40
2023-05-19T03:53:13.149Z,13.34
2023-05-19T03:54:13.168Z,13.26
2023-05-19T03:55:13.203Z,13.30
2023-05-19T03:56:13.230Z,13.30
2023-05-19T03:57:13.226Z,13.32
2023-05-19T03:58:13.265Z,13.38
2023-05-19T03:59:13.320Z,13.44
2023-05-19T04:00:13.358Z,13.42
2023-05-19T04:01:13.375Z,13.40
2023-05-19T04:02:13.432Z,13.36
2023-05-19T04:03:13.518Z,13.38
2023-05-19T04:04:13.454Z,13.48
2023-05-19T04:05:13.451Z,13.48
2023-05-19T04:06:13.457Z,13.50
2023-05-19T04:07:13.469Z,13.54
2023-05-19T04:08:13.504Z,13.49
2023-05-19T04:09:13.522Z,13.45
2023-05-19T04:10:13.553Z,13.38
2023-05-19T04:11:13.567Z,13.36
2023-05-19T04:12:13.570Z,13.30
2023-05-19T04:13:13.643Z,13.26
2023-05-19T04:14:13.684Z,13.35
2023-05-19T04:15:13.679Z,13.32
2023-05-19T04:16:13.762Z,13.40
2023-05-19T04:17:13.776Z,13.42
2023-05-19T04:18:13.901Z,13.45
2023-05-19T04:19:13.911Z,13.55
2023-05-19T04:20:13.922Z,13.63
2023-05-19T04:21:13.915Z,13.65
2023-05-19T04:22:13.948Z,13.61
2023-05-19T04:23:13.949Z,13.67
2023-05-19T04:24:14.000Z,13.83
2023-05-19T04:25:14.029Z,13.83
2023-05-19T04:26:14.036Z,13.95
2023-05-19T04:27:14.071Z,13.96
2023-05-19T04:28:14.136Z,14.04
2023-05-19T04:29:14.185Z,14.13
2023-05-19T04:30:15.221Z,14.14
2023-05-19T04:31:14.334Z,14.18
2023-05-19T04:32:14.352Z,14.07
2023-05-19T04:33:14.418Z,14.17
2023-05-19T04:34:14.461Z,14.19
2023-05-19T04:35:14.516Z,14.19
2023-05-19T04:36:14.555Z,14.31
2023-05-19T04:37:14.559Z,14.32
2023-05-19T04:38:14.580Z,14.25
2023-05-19T04:39:14.657Z,14.30
2023-05-19T04:40:14.677Z,14.29
2023-05-19T04:41:14.771Z,14.46
2023-05-19T04:42:14.792Z,14.49
2023-05-19T04:43:14.872Z,14.48
2023-05-19T04:44:14.876Z,14.58
2023-05-19T04:45:14.918Z,14.71
2023-05-19T04:46:14.979Z,14.78
2023-05-19T04:47:14.963Z,14.80
2023-05-19T04:48:15.015Z,14.81
2023-05-19T04:49:15.009Z,14.87
2023-05-19T04:50:15.009Z,14.99
2023-05-19T04:51:15.037Z,15.10
2023-05-19T04:52:15.034Z,15.02
2023-05-19T04:53:15.031Z,15.04
2023-05-19T04:54:15.076Z,15.10
2023-05-19T04:55:15.085Z,15.09
2023-05-19T04:56:15.086Z,15.19
2023-05-19T04:57:15.116Z,15.15
2023-05-19T04:58:15.105Z,15.20
2023-05-19T04:59:15.077Z,15.23
2023-05-19T05:00:15.133Z,15.27
2023-05-19T05:01:15.130Z,15.26
2023-05-19T05:02:15.162Z,15.26
2023-05-19T05:03:15.280Z,15.22
2023-05-19T05:04:15.266Z,15.24
2023-05-19T05:05:15.179Z,15.29
2023-05-19T05:06:15.189Z,15.29
2023-05-19T05:07:15.224Z,15.24
2023-05-19T05:08:15.221Z,15.18
2023-05-19T05:09:15.229Z,15.27
2023-05-19T05:10:15.272Z,15.30
2023-05-19T05:11:15.310Z,15.34
2023-05-19T05:12:15.339Z,15.30
2023-05-19T05:13:15.341Z,15.37
2023-05-19T05:14:15.366Z,15.39
2023-05-19T05:15:15.364Z,15.25
2023-05-19T05:16:15.453Z,15.18
2023-05-19T05:17:15.416Z,15.29
2023-05-19T05:18:15.464Z,15.27
2023-05-19T05:19:15.499Z,15.18
2023-05-19T05:20:15.500Z,15.17
2023-05-19T05:21:15.550Z,15.16
2023-05-19T05:22:15.590Z,15.21
2023-05-19T05:23:15.591Z,15.20
2023-05-19T05:24:15.620Z,15.15
2023-05-19T05:25:15.605Z,14.99
2023-05-19T05:26:15.633Z,15.00
2023-05-19T05:27:15.632Z,15.00
2023-05-19T05:28:15.637Z,15.01
2023-05-19T05:29:15.621Z,15.11
2023-05-19T05:30:15.627Z,15.12
2023-05-19T05:31:15.670Z,15.01
2023-05-19T05:32:15.652Z,15.06
2023-05-19T05:33:15.734Z,15.10
2023-05-19T05:34:15.678Z,15.18
2023-05-19T05:35:15.706Z,15.39
2023-05-19T05:36:15.781Z,15.46
2023-05-19T05:37:15.792Z,15.47
2023-05-19T05:38:15.854Z,15.62
2023-05-19T05:39:15.880Z,15.74
2023-05-19T05:40:15.924Z,15.80
2023-05-19T05:41:15.919Z,15.85
2023-05-19T05:42:15.925Z,15.87
2023-05-19T05:43:15.987Z,15.82
2023-05-19T05:44:16.006Z,15.85
2023-05-19T05:45:16.020Z,15.88
2023-05-19T05:46:16.142Z,15.88
2023-05-19T05:47:16.135Z,15.78
2023-05-19T05:48:16.236Z,15.73
2023-05-19T05:49:16.182Z,15.78
2023-05-19T05:50:16.176Z,15.75
2023-05-19T05:51:16.189Z,15.65
2023-05-19T05:52:16.239Z,15.64
2023-05-19T05:53:16.283Z,15.69
2023-05-19T05:54:16.342Z,15.79
2023-05-19T05:55:16.363Z,15.89
2023-05-19T05:56:16.384Z,15.97
2023-05-19T05:57:16.387Z,16.09
2023-05-19T05:58:16.369Z,16.03
2023-05-19T05:59:16.425Z,16.04
2023-05-19T06:00:16.475Z,16.07
2023-05-19T06:01:16.493Z,16.07
2023-05-19T06:02:16.581Z,16.09
2023-05-19T06:03:16.599Z,16.05
2023-05-19T06:04:16.643Z,15.94
2023-05-19T06:05:16.685Z,15.86
2023-05-19T06:06:16.636Z,15.81
2023-05-19T06:07:16.687Z,15.69
2023-05-19T06:08:16.716Z,15.77
2023-05-19T06:09:16.763Z,15.86
2023-05-19T06:10:16.793Z,15.79
2023-05-19T06:11:16.858Z,15.83
2023-05-19T06:12:16.874Z,15.90
2023-05-19T06:13:16.869Z,15.84
2023-05-19T06:14:16.942Z,15.85
2023-05-19T06:15:16.962Z,15.99
2023-05-19T06:16:17.069Z,16.01
2023-05-19T06:17:16.997Z,15.98
2023-05-19T06:18:17.038Z,16.08
2023-05-19T06:19:17.124Z,16.20
2023-05-19T06:20:17.112Z,16.37
2023-05-19T06:21:17.205Z,16.42
2023-05-19T06:22:17.166Z,16.50
2023-05-19T06:23:17.182Z,16.61
2023-05-19T06:24:17.180Z,16.59
2023-05-19T06:25:17.190Z,16.65
2023-05-19T06:26:17.218Z,16.41
2023-05-19T06:27:17.245Z,16.31
2023-05-19T06:28:17.300Z,16.27
2023-05-19T06:29:17.367Z,16.36
2023-05-19T06:30:17.402Z,16.32
2023-05-19T06:31:17.466Z,16.48
2023-05-19T06:32:17.459Z,16.63
2023-05-19T06:33:17.470Z,16.61
2023-05-19T06:34:17.530Z,16.59
2023-05-19T06:35:17.563Z,16.49
2023-05-19T06:36:17.621Z,16.22
2023-05-19T06:37:17.643Z,16.14
2023-05-19T06:38:17.673Z,16.00
2023-05-19T06:39:17.680Z,15.98
2023-05-19T06:40:17.710Z,16.12
2023-05-19T06:41:17.752Z,16.11
2023-05-19T06:42:17.770Z,16.02
2023-05-19T06:43:17.838Z,15.89
2023-05-19T06:44:19.803Z,16.09
2023-05-19T06:45:17.833Z,16.30
2023-05-19T06:46:17.915Z,16.53
2023-05-19T06:47:17.857Z,16.71
2023-05-19T06:48:17.883Z,16.81
2023-05-19T06:49:17.784Z,16.97
2023-05-19T06:50:17.799Z,16.98
2023-05-19T06:51:17.779Z,17.06
2023-05-19T06:52:17.869Z,17.06
2023-05-19T06:53:17.773Z,17.07
2023-05-19T06:54:17.775Z,16.98
2023-05-19T06:55:17.746Z,16.87
2023-05-19T06:56:17.742Z,16.98
2023-05-19T06:57:17.731Z,16.84
2023-05-19T06:58:17.717Z,16.57
2023-05-19T06:59:17.720Z,16.58
2023-05-19T07:00:19.817Z,16.69
2023-05-19T07:01:17.750Z,16.73
2023-05-19T07:02:17.735Z,16.73
2023-05-19T07:03:17.761Z,16.80
2023-05-19T07:04:17.686Z,16.91
2023-05-19T07:05:17.703Z,16.63
2023-05-19T07:06:17.670Z,16.28
2023-05-19T07:07:17.684Z,16.39
2023-05-19T07:08:17.659Z,16.58
2023-05-19T07:09:17.655Z,16.65
2023-05-19T07:10:17.632Z,16.83
2023-05-19T07:11:17.650Z,17.00
2023-05-19T07:12:17.634Z,17.16
2023-05-19T07:13:17.636Z,17.27
2023-05-19T07:14:17.635Z,17.36
2023-05-19T07:15:17.605Z,17.41
2023-05-19T07:16:17.607Z,17.29
2023-05-19T07:17:17.659Z,17.21
2023-05-19T07:18:17.605Z,17.09
2023-05-19T07:19:17.629Z,17.18
2023-05-19T07:20:17.580Z,17.15
2023-05-19T07:21:17.576Z,16.95
2023-05-19T07:22:17.567Z,16.84
2023-05-19T07:23:17.618Z,16.86
2023-05-19T07:24:17.553Z,16.94
2023-05-19T07:25:17.548Z,16.92
2023-05-19T07:26:17.548Z,16.82
2023-05-19T07:27:17.528Z,16.81
2023-05-19T07:28:17.539Z,17.00
2023-05-19T07:29:17.556Z,17.17
2023-05-19T07:30:17.520Z,17.29
2023-05-19T07:31:17.512Z,17.34
2023-05-19T07:32:17.556Z,17.35
2023-05-19T07:33:17.495Z,17.28
2023-05-19T07:34:17.472Z,17.35
2023-05-19T07:35:17.494Z,17.45
2023-05-19T07:36:17.465Z,17.54
2023-05-19T07:37:17.467Z,17.63
2023-05-19T07:38:17.464Z,17.62
2023-05-19T07:39:17.595Z,17.71
2023-05-19T07:40:17.541Z,17.84
2023-05-19T07:41:17.452Z,17.89
2023-05-19T07:42:17.429Z,17.88
2023-05-19T07:43:17.442Z,17.91
2023-05-19T07:44:17.402Z,17.91
2023-05-19T07:45:17.436Z,17.99
2023-05-19T07:46:17.475Z,17.95
2023-05-19T07:47:17.468Z,17.73
2023-05-19T07:48:17.599Z,17.81
2023-05-19T07:49:17.551Z,17.90
2023-05-19T07:50:17.609Z,17.95
2023-05-19T07:51:17.655Z,17.76
2023-05-19T07:52:17.691Z,17.75
2023-05-19T07:53:17.727Z,17.68
2023-05-19T07:54:17.796Z,17.83
2023-05-19T07:55:17.819Z,17.89
2023-05-19T07:56:17.864Z,17.90
2023-05-19T07:57:17.912Z,17.98
2023-05-19T07:58:17.943Z,18.11
2023-05-19T07:59:18.000Z,18.24
2023-05-19T08:00:18.050Z,18.32
2023-05-19T08:01:18.079Z,18.46
2023-05-19T08:02:18.188Z,18.44
2023-05-19T08:03:18.382Z,18.49
2023-05-19T08:04:18.354Z,18.52
2023-05-19T08:05:18.219Z,18.61
2023-05-19T08:06:18.226Z,18.61
2023-05-19T08:07:18.252Z,18.73
2023-05-19T08:08:18.267Z,18.73
2023-05-19T08:09:18.291Z,18.74
2023-05-19T08:10:18.362Z,18.76
2023-05-19T08:11:18.332Z,18.72
2023-05-19T08:12:18.568Z,18.79
2023-05-19T08:13:18.511Z,18.92
2023-05-19T08:14:18.478Z,18.90
2023-05-19T08:15:18.542Z,18.88
2023-05-19T08:16:18.655Z,18.73
2023-05-19T08:17:18.647Z,18.65
2023-05-19T08:18:18.663Z,18.70
2023-05-19T08:19:18.801Z,18.68
2023-05-19T08:20:18.750Z,18.67
2023-05-19T08:21:18.793Z,18.77
2023-05-19T08:22:18.825Z,18.76
2023-05-19T08:23:18.805Z,18.76
2023-05-19T08:24:18.825Z,18.81
2023-05-19T08:25:18.858Z,18.78
2023-05-19T08:26:18.870Z,18.74
2023-05-19T08:27:18.945Z,18.69
2023-05-19T08:28:19.079Z,18.73
2023-05-19T08:29:19.018Z,18.80
2023-05-19T08:30:19.087Z,18.88
2023-05-19T08:31:19.212Z,19.01
2023-05-19T08:32:19.169Z,19.14
2023-05-19T08:33:19.180Z,19.16
2023-05-19T08:34:19.206Z,19.24
2023-05-19T08:35:19.225Z,19.23
2023-05-19T08:36:19.264Z,19.27
2023-05-19T08:37:19.294Z,19.19
2023-05-19T08:38:19.301Z,19.18
2023-05-19T08:39:19.355Z,18.98
2023-05-19T08:40:19.374Z,19.07
2023-05-19T08:41:19.456Z,19.06
2023-05-19T08:42:19.429Z,19.17
2023-05-19T08:43:19.440Z,19.38
2023-05-19T08:44:19.566Z,19.56
2023-05-19T08:45:19.516Z,19.65
2023-05-19T08:46:19.596Z,19.60
2023-05-19T08:47:19.965Z,19.65
2023-05-19T08:48:19.620Z,19.74
2023-05-19T08:49:19.656Z,19.86
2023-05-19T08:50:19.720Z,19.86
2023-05-19T08:51:19.727Z,19.87
2023-05-19T08:52:19.764Z,19.91
2023-05-19T08:53:31.738Z,20.02
2023-05-19T08:54:20.829Z,20.12
2023-05-19T08:55:19.780Z,20.05
2023-05-19T08:56:19.774Z,20.04
2023-05-19T08:57:19.767Z,20.10
2023-05-19T08:58:19.756Z,20.24
2023-05-19T08:59:19.750Z,20.35
2023-05-19T09:00:19.741Z,20.43
2023-05-19T09:01:19.801Z,20.54
2023-05-19T09:02:19.732Z,20.80
2023-05-19T09:03:24.035Z,20.98
2023-05-19T09:04:19.783Z,20.98
2023-05-19T09:05:19.773Z,21.18
2023-05-19T09:06:19.697Z,21.28
2023-05-19T09:07:19.721Z,21.42
2023-05-19T09:08:19.696Z,21.52
2023-05-19T09:09:19.705Z,21.72
2023-05-19T09:10:19.670Z,21.74
2023-05-19T09:11:19.683Z,21.67
2023-05-19T09:12:19.676Z,21.36
2023-05-19T09:13:19.684Z,21.29
2023-05-19T09:14:19.647Z,21.45
2023-05-19T09:15:19.643Z,21.54
2023-05-19T09:16:19.717Z,21.35
2023-05-19T09:17:19.710Z,21.37
2023-05-19T09:18:19.616Z,21.16
2023-05-19T09:19:19.694Z,20.88
2023-05-19T09:20:19.660Z,20.90
2023-05-19T09:21:19.624Z,21.00
2023-05-19T09:22:19.627Z,21.12
2023-05-19T09:23:19.600Z,21.21
2023-05-19T09:24:19.586Z,21.43
2023-05-19T09:25:19.591Z,21.53
2023-05-19T09:26:19.578Z,21.59
2023-05-19T09:27:19.568Z,21.43
2023-05-19T09:28:19.561Z,21.72
2023-05-19T09:29:19.570Z,21.97
2023-05-19T09:30:19.705Z,22.09
2023-05-19T09:31:19.664Z,22.19
2023-05-19T09:32:19.780Z,22.23
2023-05-19T09:33:19.785Z,22.36
2023-05-19T09:34:19.768Z,22.36
2023-05-19T09:35:19.819Z,22.18
2023-05-19T09:36:19.845Z,22.01
2023-05-19T09:37:19.861Z,21.72
2023-05-19T09:38:19.882Z,21.52
2023-05-19T09:39:19.942Z,21.49
2023-05-19T09:40:19.950Z,21.67
2023-05-19T09:41:20.967Z,21.88
2023-05-19T09:42:20.059Z,22.03
2023-05-19T09:43:20.091Z,22.16
2023-05-19T09:44:20.110Z,22.23
2023-05-19T09:45:20.137Z,22.19
2023-05-19T09:46:20.179Z,22.19
2023-05-19T09:47:20.166Z,22.32
2023-05-19T09:48:20.268Z,22.36
2023-05-19T09:49:20.258Z,22.20
2023-05-19T09:50:20.258Z,22.17
2023-05-19T09:51:20.278Z,21.95
2023-05-19T09:52:20.314Z,21.94
2023-05-19T09:53:20.360Z,22.02
2023-05-19T09:54:20.401Z,22.12
2023-05-19T09:55:20.414Z,22.19
2023-05-19T09:56:20.465Z,22.22
2023-05-19T09:57:20.443Z,22.26
2023-05-19T09:58:20.466Z,22.18
2023-05-19T09:59:20.475Z,22.24
2023-05-19T10:00:20.491Z,22.37
2023-05-19T10:01:20.587Z,22.43
2023-05-19T10:02:20.597Z,22.26
2023-05-19T10:03:20.649Z,22.17
2023-05-19T10:04:20.675Z,22.04
2023-05-19T10:05:20.832Z,21.85
2023-05-19T10:06:20.713Z,21.75
2023-05-19T10:07:20.733Z,21.78
2023-05-19T10:08:20.750Z,21.87
2023-05-19T10:09:20.778Z,21.95
2023-05-19T10:10:20.796Z,21.95
2023-05-19T10:11:20.851Z,21.96
2023-05-19T10:12:20.879Z,21.88
2023-05-19T10:13:20.921Z,21.83
2023-05-19T10:14:20.961Z,21.91
2023-05-19T10:15:23.163Z,22.02
2023-05-19T10:16:21.111Z,22.10
2023-05-19T10:17:21.066Z,22.13
2023-05-19T10:18:21.096Z,22.20
2023-05-19T10:19:21.162Z,22.28
2023-05-19T10:20:21.182Z,22.36
2023-05-19T10:21:21.199Z,22.39
2023-05-19T10:22:21.242Z,22.41
2023-05-19T10:23:21.257Z,22.51
2023-05-19T10:24:21.336Z,22.62
2023-05-19T10:25:21.322Z,22.85
2023-05-19T10:26:21.341Z,22.94
2023-05-19T10:27:21.405Z,23.14
2023-05-19T10:28:21.452Z,23.38
2023-05-19T10:29:21.473Z,23.59
2023-05-19T10:30:21.520Z,23.71
2023-05-19T10:31:21.558Z,23.74
2023-05-19T10:32:21.798Z,23.87
2023-05-19T10:33:21.681Z,24.03
2023-05-19T10:34:21.643Z,24.13
2023-05-19T10:35:21.673Z,24.16
2023-05-19T10:36:21.714Z,24.01
2023-05-19T10:37:21.745Z,24.05
2023-05-19T10:38:21.756Z,24.14
2023-05-19T10:39:21.787Z,24.23
2023-05-19T10:40:21.829Z,24.33
2023-05-19T10:41:21.845Z,24.41
2023-05-19T10:42:21.856Z,24.48
2023-05-19T10:43:21.879Z,24.50
2023-05-19T10:44:21.893Z,24.44
2023-05-19T10:45:21.900Z,24.39
2023-05-19T10:46:21.922Z,24.33
2023-05-19T10:47:22.003Z,24.20
2023-05-19T10:48:21.902Z,24.07
2023-05-19T10:49:21.918Z,24.07
2023-05-19T10:50:21.900Z,24.10
2023-05-19T10:51:21.913Z,24.08
2023-05-19T10:52:21.985Z,24.01
2023-05-19T10:53:21.940Z,23.98
2023-05-19T10:54:21.955Z,24.04
2023-05-19T10:55:21.966Z,24.05
2023-05-19T10:56:22.005Z,23.92
2023-05-19T10:57:22.021Z,23.97
2023-05-19T10:58:22.040Z,23.74
2023-05-19T10:59:22.068Z,23.77
2023-05-19T11:00:22.099Z,23.88
2023-05-19T11:01:22.123Z,24.05
2023-05-19T11:02:22.638Z,24.18
2023-05-19T11:03:22.125Z,24.33
2023-05-19T11:04:22.232Z,24.43
2023-05-19T11:05:22.209Z,24.49
2023-05-19T11:06:22.253Z,24.55
2023-05-19T11:07:22.336Z,24.69
2023-05-19T11:08:22.340Z,24.85
2023-05-19T11:09:31.094Z,24.86
2023-05-19T11:10:23.356Z,24.92
2023-05-19T11:11:23.433Z,24.93
2023-05-19T11:12:24.316Z,24.95
2023-05-19T11:13:23.043Z,24.87
2023-05-19T11:14:22.446Z,24.90
2023-05-19T11:15:22.456Z,25.03
2023-05-19T11:16:22.545Z,25.18
2023-05-19T11:17:22.563Z,25.32
2023-05-19T11:18:22.563Z,25.45
2023-05-19T11:19:22.795Z,25.39
2023-05-19T11:20:22.663Z,25.40
2023-05-19T11:21:22.722Z,25.36
2023-05-19T11:22:22.737Z,25.29
2023-05-19T11:23:22.785Z,25.13
2023-05-19T11:24:22.747Z,24.90
2023-05-19T11:25:22.746Z,24.73
2023-05-19T11:26:22.808Z,24.73
2023-05-19T11:27:22.856Z,24.68
2023-05-19T11:28:22.907Z,24.78
2023-05-19T11:29:22.932Z,24.88
2023-05-19T11:30:22.989Z,24.96
2023-05-19T11:31:23.086Z,24.93
2023-05-19T11:32:23.552Z,25.05
2023-05-19T11:33:23.071Z,25.12
2023-05-19T11:34:23.112Z,25.27
2023-05-19T11:35:23.103Z,25.36
2023-05-19T11:36:23.129Z,25.40
2023-05-19T11:37:23.140Z,25.54
2023-05-19T11:38:23.140Z,25.56
2023-05-19T11:39:23.198Z,25.42
2023-05-19T11:40:23.236Z,25.37
2023-05-19T11:41:23.215Z,25.36
2023-05-19T11:42:23.279Z,25.50
2023-05-19T11:43:23.359Z,25.59
2023-05-19T11:44:23.360Z,25.65
2023-05-19T11:45:23.415Z,25.65
2023-05-19T11:46:23.486Z,25.59
2023-05-19T11:47:23.499Z,25.63
2023-05-19T11:48:23.610Z,25.67
2023-05-19T11:49:23.537Z,25.59
2023-05-19T11:50:23.640Z,25.63
2023-05-19T11:51:23.665Z,25.69
2023-05-19T11:52:23.653Z,25.71
2023-05-19T11:53:23.683Z,25.69
2023-05-19T11:54:23.711Z,25.61
2023-05-19T11:55:23.746Z,25.58
2023-05-19T11:56:23.737Z,25.55
2023-05-19T11:57:23.785Z,25.59
2023-05-19T11:58:23.793Z,25.57
2023-05-19T11:59:23.843Z,25.58
2023-05-19T12:00:23.846Z,25.45
2023-05-19T12:01:23.884Z,25.48
2023-05-19T12:02:23.904Z,25.56
2023-05-19T12:03:23.966Z,25.70
2023-05-19T12:04:23.974Z,25.81
2023-05-19T12:05:24.082Z,25.84
2023-05-19T12:06:24.112Z,25.72
2023-05-19T12:07:24.085Z,25.68
2023-05-19T12:08:24.124Z,25.69
2023-05-19T12:09:24.177Z,25.68
2023-05-19T12:10:24.219Z,25.75
2023-05-19T12:11:24.249Z,25.63
2023-05-19T12:12:24.286Z,25.72
2023-05-19T12:13:24.293Z,25.69
2023-05-19T12:14:24.323Z,25.62
2023-05-19T12:15:24.355Z,25.69
2023-05-19T12:16:24.537Z,25.78
2023-05-19T12:17:24.504Z,25.83
2023-05-19T12:18:24.502Z,25.88
2023-05-19T12:19:24.641Z,25.75
2023-05-19T12:20:24.571Z,25.77
2023-05-19T12:21:24.549Z,25.79
2023-05-19T12:22:25.560Z,25.88
2023-05-19T12:23:24.548Z,25.89
2023-05-19T12:24:24.549Z,25.77
2023-05-19T12:25:24.549Z,25.69
2023-05-19T12:26:24.530Z,25.55
2023-05-19T12:27:24.520Z,25.53
2023-05-19T12:28:24.522Z,25.64
2023-05-19T12:29:24.511Z,25.78
2023-05-19T12:30:24.509Z,25.80
2023-05-19T12:31:24.543Z,25.94
2023-05-19T12:32:24.557Z,26.05
2023-05-19T12:33:24.489Z,26.19
2023-05-19T12:34:24.489Z,26.20
2023-05-19T12:35:24.483Z,26.16
2023-05-19T12:36:24.513Z,26.24
2023-05-19T12:37:24.556Z,26.28
2023-05-19T12:38:24.596Z,26.38
2023-05-19T12:39:24.646Z,26.28
2023-05-19T12:40:24.691Z,25.69
2023-05-19T12:41:24.717Z,25.73
2023-05-19T12:42:24.769Z,25.97
2023-05-19T12:43:24.795Z,26.23
2023-05-19T12:44:24.939Z,26.32
2023-05-19T12:45:24.862Z,26.38
2023-05-19T12:46:25.014Z,26.47
2023-05-19T12:47:24.988Z,26.40
2023-05-19T12:48:24.942Z,26.52
2023-05-19T12:49:24.977Z,26.54
2023-05-19T12:50:24.996Z,26.42
2023-05-19T12:51:25.053Z,26.42
2023-05-19T12:52:25.119Z,26.39